Time;durP1;ratioP1;P1;durP2;ratioP2;P2;SDS_P1;SDS_P2;PMS_P1;PMS_P2;Temp;Humidity;BMP_temperature;BMP_pressure;BME280_temperature;BME280_humidity;BME280_pressure;Samples;Min_cycle;Max_cycle;Signal;HPM_P1;HPM_P2
2022/04/22 00:00:07;;;;;;;9.70;1.63;;;17.00;99.90;;;;;;5037461;28;20041;-68
2022/04/22 00:02:35;;;;;;;11.52;2.15;;;17.10;99.90;;;;;;5032854;28;20049;-68
2022/04/22 00:05:03;;;;;;;10.95;2.58;;;17.10;99.90;;;;;;5030921;28;20030;-69
2022/04/22 00:07:30;;;;;;;8.15;1.33;;;17.10;99.90;;;;;;5026411;28;20116;-69
2022/04/22 00:09:58;;;;;;;10.50;1.90;;;17.20;99.90;;;;;;5028609;28;20017;-69
2022/04/22 00:12:25;;;;;;;10.98;1.75;;;17.20;99.90;;;;;;5032532;28;20095;-69
2022/04/22 00:14:53;;;;;;;15.88;1.60;;;17.30;99.90;;;;;;5029961;28;20478;-69
2022/04/22 00:17:20;;;;;;;13.38;1.67;;;17.40;99.90;;;;;;5031994;28;20108;-69
2022/04/22 00:19:48;;;;;;;11.50;1.65;;;17.50;99.90;;;;;;5031104;28;20029;-70
2022/04/22 00:22:15;;;;;;;9.23;2.45;;;17.60;99.90;;;;;;5032798;28;20025;-69
2022/04/22 00:24:42;;;;;;;9.23;2.15;;;17.80;99.90;;;;;;5030739;28;20521;-70
2022/04/22 00:27:10;;;;;;;12.32;2.33;;;17.90;99.90;;;;;;5042752;28;20021;-70
2022/04/22 00:29:37;;;;;;;8.77;2.33;;;17.90;99.90;;;;;;5022676;28;20027;-69
2022/04/22 00:32:05;;;;;;;8.23;2.10;;;17.90;99.90;;;;;;5031269;28;20035;-69
2022/04/22 00:34:32;;;;;;;7.50;1.50;;;18.00;99.90;;;;;;5033254;28;20470;-70
2022/04/22 00:36:59;;;;;;;7.63;1.70;;;18.00;99.90;;;;;;5031954;28;20025;-69
2022/04/22 00:39:27;;;;;;;11.20;2.63;;;18.10;99.90;;;;;;5032521;28;20021;-70
2022/04/22 00:41:54;;;;;;;13.60;2.15;;;18.10;99.90;;;;;;5031345;28;20114;-70
2022/04/22 00:44:21;;;;;;;12.13;1.40;;;18.10;99.90;;;;;;5032442;28;20041;-70
2022/04/22 00:46:49;;;;;;;10.73;1.40;;;17.90;99.90;;;;;;5015553;28;20034;-70
2022/04/22 00:49:16;;;;;;;13.50;1.17;;;18.00;99.90;;;;;;5029284;28;20113;-70
2022/04/22 00:51:44;;;;;;;6.22;1.25;;;18.00;99.90;;;;;;5029931;28;20014;-70
2022/04/22 00:54:12;;;;;;;8.48;1.05;;;18.10;99.90;;;;;;5031622;28;20021;-70
2022/04/22 00:56:40;;;;;;;11.07;2.33;;;18.20;99.90;;;;;;5020765;28;20026;-70
2022/04/22 00:59:08;;;;;;;7.40;0.90;;;18.40;99.90;;;;;;5031212;28;20022;-70
2022/04/22 01:01:35;;;;;;;4.53;1.13;;;18.50;99.90;;;;;;5028984;28;20041;-70
2022/04/22 01:09:47;;;;;;;9.95;1.27;;;18.80;99.90;;;;;;5051031;28;20079;-69
2022/04/22 01:12:15;;;;;;;8.43;1.38;;;18.80;99.90;;;;;;5030594;28;20192;-70
2022/04/22 01:14:43;;;;;;;9.50;1.10;;;18.80;99.90;;;;;;5013789;28;20040;-70
2022/04/22 01:17:10;;;;;;;4.90;0.90;;;18.70;99.90;;;;;;5031839;28;20069;-70
2022/04/22 01:19:38;;;;;;;8.63;1.10;;;18.70;99.90;;;;;;5032817;28;20021;-69
2022/04/22 01:22:05;;;;;;;6.00;0.60;;;18.60;99.90;;;;;;5012384;28;20461;-69
2022/04/22 01:24:33;;;;;;;6.93;0.90;;;18.40;99.90;;;;;;5013213;28;20111;-70
2022/04/22 01:27:01;;;;;;;4.57;0.43;;;18.10;99.90;;;;;;5030194;28;20402;-69
2022/04/22 01:29:29;;;;;;;4.25;0.57;;;18.10;99.90;;;;;;5032098;28;20025;-69
2022/04/22 01:31:56;;;;;;;4.05;0.63;;;18.20;99.90;;;;;;5014862;28;20034;-70
2022/04/22 01:34:23;;;;;;;7.15;0.60;;;18.20;99.90;;;;;;5035563;28;20036;-70
2022/04/22 01:36:50;;;;;;;7.75;0.90;;;18.40;99.90;;;;;;5032766;28;20029;-70
2022/04/22 01:39:18;;;;;;;13.05;1.30;;;18.50;99.90;;;;;;5035763;28;20029;-70
2022/04/22 01:41:45;;;;;;;7.30;0.90;;;18.60;99.90;;;;;;5017693;28;20487;-70
2022/04/22 01:44:12;;;;;;;4.25;0.88;;;18.70;99.90;;;;;;5032231;28;20060;-70
2022/04/22 01:46:40;;;;;;;9.88;1.60;;;18.80;99.90;;;;;;5032097;28;20030;-70
2022/04/22 01:49:07;;;;;;;7.68;1.00;;;18.80;99.90;;;;;;5020584;28;20108;-70
2022/04/22 01:51:35;;;;;;;7.13;1.65;;;18.80;99.90;;;;;;5031756;28;20367;-70
2022/04/22 01:54:03;;;;;;;7.88;1.05;;;18.90;99.90;;;;;;5022703;28;20033;-70
2022/04/22 01:56:30;;;;;;;7.70;0.90;;;18.90;99.90;;;;;;5016809;28;20029;-70
2022/04/22 01:58:57;;;;;;;9.48;1.30;;;18.90;99.90;;;;;;5015932;28;20479;-70
2022/04/22 02:01:25;;;;;;;10.63;1.30;;;18.90;99.90;;;;;;5027855;28;20041;-70
2022/04/22 02:03:52;;;;;;;11.27;2.08;;;18.90;99.90;;;;;;5033420;28;20029;-70
2022/04/22 02:06:20;;;;;;;15.43;2.03;;;18.90;99.90;;;;;;5028461;28;20036;-70
2022/04/22 02:08:47;;;;;;;8.32;1.92;;;18.80;99.90;;;;;;5027501;28;20022;-70
2022/04/22 02:11:16;;;;;;;9.45;1.52;;;18.80;99.90;;;;;;5034490;28;20457;-70
2022/04/22 02:13:43;;;;;;;7.30;1.10;;;19.00;99.90;;;;;;5033804;28;20021;-70
2022/04/22 02:16:11;;;;;;;16.42;1.45;;;19.10;99.90;;;;;;5027447;28;20025;-70
2022/04/22 02:18:39;;;;;;;8.75;1.10;;;19.20;99.90;;;;;;5036125;28;20466;-69
2022/04/22 02:21:08;;;;;;;10.02;1.10;;;19.20;99.90;;;;;;5032609;28;20032;-70
2022/04/22 02:23:35;;;;;;;6.97;1.02;;;19.10;99.90;;;;;;5031489;28;20494;-70
2022/04/22 02:26:04;;;;;;;10.07;1.45;;;18.90;99.90;;;;;;5034632;28;20442;-70
2022/04/22 02:28:32;;;;;;;7.60;1.13;;;18.80;99.90;;;;;;5035842;28;20022;-70
2022/04/22 02:31:10;;;;;;;8.80;1.13;;;18.60;99.90;;;;;;5033615;28;20037;-70
2022/04/22 02:33:40;;;;;;;6.20;0.52;;;18.60;99.90;;;;;;5031886;28;20075;-70
2022/04/22 02:36:08;;;;;;;8.75;1.17;;;18.60;99.90;;;;;;5027522;28;20555;-70
2022/04/22 02:38:36;;;;;;;7.13;1.38;;;18.60;99.90;;;;;;5015848;28;20102;-70
2022/04/22 02:46:35;;;;;;;4.32;0.73;;;18.70;99.90;;;;;;5032947;28;20037;-70
2022/04/22 02:49:02;;;;;;;8.35;0.93;;;18.60;99.90;;;;;;5034062;28;20044;-70
2022/04/22 02:51:30;;;;;;;7.20;1.05;;;18.60;99.90;;;;;;5030493;28;20044;-70
2022/04/22 02:53:57;;;;;;;9.73;1.70;;;18.50;99.90;;;;;;5034016;28;20034;-70
2022/04/22 02:56:26;;;;;;;5.75;1.58;;;18.30;99.90;;;;;;5032751;28;20026;-70
2022/04/22 02:58:56;;;;;;;8.85;1.20;;;17.80;99.90;;;;;;5029683;28;20087;-69
2022/04/22 03:01:23;;;;;;;8.32;1.13;;;17.20;99.90;;;;;;5026679;28;20041;-69
2022/04/22 03:03:51;;;;;;;14.75;0.90;;;17.10;99.90;;;;;;5018351;28;20121;-70
2022/04/22 03:06:18;;;;;;;14.52;1.42;;;17.00;99.90;;;;;;5025945;28;20037;-69
2022/04/22 03:08:45;;;;;;;9.75;1.23;;;16.70;99.90;;;;;;5022753;28;20371;-70
2022/04/22 03:11:20;;;;;;;10.10;1.80;;;16.80;99.90;;;;;;5028052;28;20057;-70
2022/04/22 03:13:47;;;;;;;10.43;1.38;;;16.80;99.90;;;;;;5035060;28;20462;-69
2022/04/22 03:16:14;;;;;;;9.80;1.25;;;16.70;99.90;;;;;;5022008;28;20394;-69
2022/04/22 03:18:42;;;;;;;6.40;0.95;;;16.80;99.90;;;;;;5015131;28;20018;-69
2022/04/22 03:21:09;;;;;;;7.53;0.90;;;16.70;99.90;;;;;;5024839;28;20033;-69
2022/04/22 03:23:36;;;;;;;7.28;1.15;;;16.90;99.90;;;;;;5032895;28;20030;-69
2022/04/22 03:26:04;;;;;;;7.38;0.90;;;16.90;99.90;;;;;;5014533;28;20034;-69
2022/04/22 03:28:31;;;;;;;9.77;1.27;;;16.90;99.90;;;;;;5027123;28;20389;-69
2022/04/22 03:30:58;;;;;;;9.80;1.95;;;17.00;99.90;;;;;;5033171;28;20482;-69
2022/04/22 03:33:26;;;;;;;6.22;1.67;;;17.10;99.90;;;;;;5034417;28;20033;-69
2022/04/22 03:35:53;;;;;;;8.65;1.60;;;17.20;99.90;;;;;;5037929;28;20064;-70
2022/04/22 03:38:21;;;;;;;7.30;1.73;;;17.20;99.90;;;;;;5027742;28;20083;-69
2022/04/22 03:40:53;;;;;;;8.73;1.45;;;17.30;99.90;;;;;;5030822;28;20037;-69
2022/04/22 03:43:23;;;;;;;10.35;1.80;;;17.40;99.90;;;;;;5031743;28;20030;-69
2022/04/22 03:45:50;;;;;;;10.35;1.70;;;17.40;99.90;;;;;;5032077;28;20034;-69
2022/04/22 03:48:18;;;;;;;7.30;0.75;;;17.50;99.90;;;;;;5029267;28;20482;-69
2022/04/22 03:50:45;;;;;;;10.38;1.42;;;17.50;99.90;;;;;;5030156;28;20025;-69
2022/04/22 03:53:13;;;;;;;6.20;1.35;;;17.60;99.90;;;;;;5025379;28;20072;-69
2022/04/22 03:55:41;;;;;;;6.25;0.80;;;17.50;99.90;;;;;;5030323;28;20026;-69
2022/04/22 03:58:13;;;;;;;4.65;1.20;;;17.50;99.90;;;;;;5033286;28;20370;-69
2022/04/22 04:00:50;;;;;;;6.85;0.90;;;17.70;99.90;;;;;;5023461;28;20029;-69
2022/04/22 04:03:19;;;;;;;7.78;0.77;;;17.80;99.90;;;;;;5016225;28;20047;-69
2022/04/22 04:05:51;;;;;;;9.10;1.85;;;17.90;99.90;;;;;;5031083;28;20064;-69
2022/04/22 04:08:21;;;;;;;12.55;1.95;;;17.90;99.90;;;;;;5033420;28;20113;-69
2022/04/22 04:16:21;;;;;;;5.53;0.65;;;17.90;99.90;;;;;;5029511;28;20036;-69
2022/04/22 04:18:48;;;;;;;7.22;1.80;;;17.60;99.90;;;;;;5012439;28;20065;-69
2022/04/22 04:24:00;;;;;;;7.18;1.25;;;17.50;99.90;;;;;;5030456;28;20486;-69
2022/04/22 04:26:27;;;;;;;8.52;0.95;;;17.60;99.90;;;;;;5022636;28;20128;-68
2022/04/22 04:28:55;;;;;;;5.47;1.40;;;17.60;99.90;;;;;;5033713;28;20036;-69
2022/04/22 04:31:22;;;;;;;4.82;1.15;;;17.70;99.90;;;;;;5029308;28;20991;-70
2022/04/22 04:33:50;;;;;;;5.40;1.00;;;17.70;99.90;;;;;;5031458;28;20103;-70
2022/04/22 04:36:17;;;;;;;2.38;0.80;;;17.50;99.90;;;;;;5032371;28;20025;-70
2022/04/22 04:38:46;;;;;;;6.80;1.00;;;17.50;99.90;;;;;;5029241;28;22517;-70
2022/04/22 04:41:13;;;;;;;7.13;1.13;;;17.40;99.90;;;;;;5028495;28;20051;-71
2022/04/22 04:43:41;;;;;;;10.60;1.15;;;17.50;99.90;;;;;;5028816;28;20156;-70
2022/04/22 04:46:08;;;;;;;6.93;1.10;;;17.50;99.90;;;;;;5022911;28;20064;-70
2022/04/22 04:48:38;;;;;;;8.77;1.33;;;17.40;99.90;;;;;;5018279;28;20033;-70
2022/04/22 04:51:06;;;;;;;3.92;0.60;;;17.30;99.90;;;;;;5030663;28;20028;-70
2022/04/22 04:53:34;;;;;;;5.65;0.88;;;17.10;99.90;;;;;;5024529;28;20030;-70
2022/04/22 04:56:02;;;;;;;7.95;2.10;;;17.00;99.90;;;;;;5029298;28;20104;-70
2022/04/22 04:58:29;;;;;;;6.63;0.88;;;17.00;99.90;;;;;;5031748;28;20025;-70
2022/04/22 05:00:56;;;;;;;7.90;1.50;;;16.90;99.90;;;;;;5031086;28;20037;-71
2022/04/22 05:03:23;;;;;;;9.20;0.85;;;16.90;99.90;;;;;;5029388;28;20101;-70
2022/04/22 05:05:51;;;;;;;7.15;0.90;;;16.90;99.90;;;;;;5032713;28;20029;-70
2022/04/22 05:08:18;;;;;;;4.60;0.85;;;16.80;99.90;;;;;;5025059;28;20018;-70
2022/04/22 05:10:46;;;;;;;9.10;0.75;;;16.70;99.90;;;;;;5026268;28;20509;-69
2022/04/22 05:13:13;;;;;;;8.95;0.80;;;16.70;99.90;;;;;;5032027;28;20030;-70
2022/04/22 05:15:43;;;;;;;6.70;0.90;;;16.80;99.90;;;;;;5030695;28;20101;-70
2022/04/22 05:18:10;;;;;;;6.80;1.50;;;16.80;99.90;;;;;;5032375;28;20045;-70
2022/04/22 05:20:38;;;;;;;9.73;2.75;;;16.70;99.90;;;;;;5031880;28;20105;-70
2022/04/22 05:23:05;;;;;;;6.32;1.23;;;16.70;99.90;;;;;;5034225;28;20501;-70
2022/04/22 05:25:32;;;;;;;6.50;0.82;;;16.80;99.90;;;;;;5030858;28;20707;-70
2022/04/22 05:27:59;;;;;;;7.30;2.20;;;16.80;99.90;;;;;;5034112;28;20033;-70
2022/04/22 05:33:12;;;;;;;9.70;1.45;;;16.90;99.90;;;;;;5028960;28;20028;-70
2022/04/22 05:35:40;;;;;;;5.65;0.98;;;16.90;99.90;;;;;;5029362;28;20026;-70
2022/04/22 05:38:07;;;;;;;4.28;1.10;;;16.80;99.90;;;;;;5035454;28;20108;-70
2022/04/22 05:40:39;;;;;;;8.88;1.00;;;16.90;99.90;;;;;;5036081;28;21225;-70
2022/04/22 05:43:08;;;;;;;5.93;1.17;;;16.90;99.90;;;;;;5033828;28;20148;-70
2022/04/22 05:45:37;;;;;;;4.22;0.60;;;17.00;99.90;;;;;;5029365;28;20022;-70
2022/04/22 05:48:04;;;;;;;4.15;1.15;;;17.00;99.90;;;;;;5030935;28;20029;-70
2022/04/22 05:50:32;;;;;;;4.53;1.15;;;17.10;99.90;;;;;;5031995;28;20026;-70
2022/04/22 05:52:59;;;;;;;6.22;0.73;;;17.10;99.90;;;;;;5036670;28;20025;-70
2022/04/22 05:55:28;;;;;;;7.43;0.90;;;17.20;99.90;;;;;;5032950;28;20497;-70
2022/04/22 05:57:57;;;;;;;4.63;1.55;;;17.30;99.90;;;;;;5029611;28;20029;-70
2022/04/22 06:00:27;;;;;;;6.70;1.60;;;17.30;99.90;;;;;;5029123;28;20026;-70
2022/04/22 06:02:58;;;;;;;5.13;0.82;;;17.30;99.90;;;;;;5032310;28;20071;-70
2022/04/22 06:05:26;;;;;;;3.00;0.93;;;17.30;99.90;;;;;;5031132;28;20076;-70
2022/04/22 06:10:40;;;;;;;5.68;0.90;;;17.10;99.90;;;;;;5026756;28;20044;-70
2022/04/22 06:13:07;;;;;;;6.43;1.15;;;17.10;99.90;;;;;;5032768;28;20057;-70
2022/04/22 06:15:35;;;;;;;6.60;1.73;;;17.00;99.90;;;;;;5041989;28;20025;-69
2022/04/22 06:18:03;;;;;;;7.25;1.60;;;16.80;99.90;;;;;;5038116;28;20394;-70
2022/04/22 06:20:30;;;;;;;9.13;1.45;;;16.80;99.90;;;;;;5036097;28;20035;-69
2022/04/22 06:22:58;;;;;;;7.03;0.80;;;16.80;99.90;;;;;;5043110;28;20043;-70
2022/04/22 06:25:25;;;;;;;3.67;1.10;;;16.80;99.90;;;;;;5031773;28;20572;-70
2022/04/22 06:27:53;;;;;;;6.85;1.17;;;16.70;99.90;;;;;;5041964;28;20090;-70
2022/04/22 06:30:23;;;;;;;3.95;0.90;;;16.70;99.90;;;;;;5035202;28;20051;-70
2022/04/22 06:32:52;;;;;;;3.25;1.42;;;16.70;99.90;;;;;;5012285;28;20389;-70
2022/04/22 06:35:23;;;;;;;4.07;1.90;;;16.80;99.90;;;;;;5025412;28;20033;-69
2022/04/22 06:37:54;;;;;;;5.22;1.10;;;16.70;99.90;;;;;;5027113;28;20043;-69
2022/04/22 06:45:55;;;;;;;7.22;0.98;;;16.70;99.90;;;;;;5027736;28;20123;-69
2022/04/22 06:48:32;;;;;;;8.80;1.88;;;16.80;99.90;;;;;;5032967;28;20108;-69
2022/04/22 06:51:01;;;;;;;15.40;2.50;;;16.90;99.90;;;;;;5031905;28;20030;-69
2022/04/22 06:53:28;;;;;;;4.97;1.65;;;16.90;99.90;;;;;;5028842;28;20025;-69
2022/04/22 06:56:00;;;;;;;7.88;1.75;;;16.80;99.90;;;;;;5041774;28;20433;-69
2022/04/22 06:58:30;;;;;;;8.30;1.88;;;16.80;99.90;;;;;;5029924;28;20053;-69
2022/04/22 07:00:57;;;;;;;8.95;2.38;;;16.80;99.90;;;;;;5031280;28;20029;-69
2022/04/22 07:03:25;;;;;;;8.75;1.80;;;16.90;99.90;;;;;;5031828;28;20049;-69
2022/04/22 07:05:52;;;;;;;8.52;2.15;;;16.90;99.90;;;;;;5032702;28;20021;-69
2022/04/22 07:08:20;;;;;;;8.20;1.33;;;16.90;99.90;;;;;;5030406;28;20046;-69
2022/04/22 07:10:49;;;;;;;6.32;1.30;;;16.80;99.90;;;;;;5032545;28;20120;-69
2022/04/22 07:13:17;;;;;;;8.77;2.13;;;16.80;99.90;;;;;;5033061;28;20025;-67
2022/04/22 07:20:57;;;;;;;5.15;1.42;;;16.80;99.90;;;;;;5036526;28;20041;-69
2022/04/22 07:23:26;;;;;;;5.85;1.15;;;16.80;99.90;;;;;;5022699;28;20032;-69
2022/04/22 07:25:54;;;;;;;5.38;1.30;;;16.80;99.90;;;;;;5027169;28;20025;-69
2022/04/22 07:28:22;;;;;;;5.13;1.00;;;16.90;99.90;;;;;;5031816;28;20079;-69
2022/04/22 07:30:51;;;;;;;7.43;1.98;;;16.80;99.90;;;;;;5020279;28;20470;-68
2022/04/22 07:33:20;;;;;;;6.55;1.58;;;16.80;99.90;;;;;;5030911;28;20022;-69
2022/04/22 07:35:48;;;;;;;5.75;1.27;;;16.80;99.90;;;;;;5028047;28;20449;-69
2022/04/22 07:38:18;;;;;;;5.22;1.23;;;16.80;99.90;;;;;;5028450;28;20092;-69
2022/04/22 07:40:49;;;;;;;10.10;1.58;;;16.80;99.90;;;;;;5025802;28;20022;-68
2022/04/22 07:48:41;;;;;;;5.35;1.02;;;16.80;99.90;;;;;;5025713;28;20072;-69
2022/04/22 07:51:08;;;;;;;6.85;1.30;;;16.80;99.90;;;;;;5031226;28;20470;-69
2022/04/22 07:53:36;;;;;;;2.75;0.80;;;16.80;99.90;;;;;;5029179;28;20025;-69
2022/04/22 07:56:05;;;;;;;9.70;1.88;;;16.90;99.90;;;;;;5028420;28;20382;-69
2022/04/22 07:58:33;;;;;;;4.45;1.10;;;16.80;99.90;;;;;;5028145;28;20032;-69
2022/04/22 08:01:00;;;;;;;8.30;1.20;;;16.80;99.90;;;;;;5020905;28;20033;-69
2022/04/22 08:03:28;;;;;;;7.10;0.93;;;16.90;99.90;;;;;;5028469;28;20044;-69
2022/04/22 08:05:56;;;;;;;6.22;0.90;;;16.80;99.90;;;;;;5028958;28;20083;-69
2022/04/22 08:08:28;;;;;;;6.68;0.98;;;16.80;99.90;;;;;;5029404;28;21846;-68
2022/04/22 08:10:56;;;;;;;4.05;0.90;;;16.70;99.90;;;;;;5018527;28;20030;-67
2022/04/22 08:13:26;;;;;;;4.70;0.90;;;16.70;99.90;;;;;;5028846;28;20071;-67
2022/04/22 08:15:54;;;;;;;6.63;1.00;;;16.60;99.90;;;;;;5025209;28;20026;-67
2022/04/22 08:18:21;;;;;;;3.95;0.93;;;16.50;99.90;;;;;;5027911;28;20033;-68
2022/04/22 08:20:49;;;;;;;3.72;0.75;;;16.50;99.90;;;;;;5030982;28;21126;-68
2022/04/22 08:23:20;;;;;;;5.55;0.80;;;16.50;99.90;;;;;;5031194;28;20105;-67
2022/04/22 08:25:47;;;;;;;6.30;0.63;;;16.50;99.90;;;;;;5032634;28;20644;-68
2022/04/22 08:28:15;;;;;;;3.47;0.80;;;16.50;99.90;;;;;;5031879;28;20025;-68
2022/04/22 08:30:42;;;;;;;6.28;1.23;;;16.60;99.90;;;;;;5032604;28;20393;-68
2022/04/22 08:33:10;;;;;;;4.45;1.17;;;16.60;99.90;;;;;;5027330;28;20560;-68
2022/04/22 08:35:38;;;;;;;6.03;1.30;;;16.60;99.90;;;;;;5023262;28;20025;-68
2022/04/22 08:38:07;;;;;;;5.03;1.60;;;16.60;99.90;;;;;;5027320;28;20474;-68
2022/04/22 08:40:39;;;;;;;7.45;1.85;;;16.60;99.90;;;;;;5030821;28;20437;-68
2022/04/22 08:43:12;;;;;;;7.47;1.17;;;16.60;99.90;;;;;;5030095;28;20029;-68
2022/04/22 08:45:40;;;;;;;8.48;1.50;;;16.60;99.90;;;;;;5029759;28;20140;-68
2022/04/22 08:50:57;;;;;;;6.10;1.83;;;16.50;99.90;;;;;;5031306;28;20052;-68
2022/04/22 08:53:30;;;;;;;3.42;0.63;;;16.50;99.90;;;;;;5031146;28;20075;-68
2022/04/22 08:56:01;;;;;;;5.72;1.00;;;16.40;99.90;;;;;;5027560;28;20382;-68
2022/04/22 08:58:29;;;;;;;5.28;0.93;;;16.40;99.90;;;;;;5028559;28;20033;-68
2022/04/22 09:00:58;;;;;;;4.10;1.00;;;16.40;99.90;;;;;;5031970;28;20485;-68
2022/04/22 09:03:29;;;;;;;4.20;1.08;;;16.40;99.90;;;;;;5030220;28;20065;-68
2022/04/22 09:05:58;;;;;;;8.27;1.65;;;16.40;99.90;;;;;;5036221;28;20030;-68
2022/04/22 09:08:28;;;;;;;4.10;1.20;;;16.30;99.90;;;;;;5035989;28;20064;-68
2022/04/22 09:10:58;;;;;;;11.00;1.35;;;16.40;99.90;;;;;;5036023;28;20030;-68
2022/04/22 09:13:32;;;;;;;6.90;1.20;;;16.50;99.90;;;;;;5034203;28;20129;-68
2022/04/22 09:16:00;;;;;;;6.10;1.60;;;16.50;99.90;;;;;;5036379;28;20031;-68
2022/04/22 09:18:29;;;;;;;9.88;1.30;;;16.50;99.90;;;;;;5032508;28;20025;-68
2022/04/22 09:21:02;;;;;;;6.90;1.33;;;16.50;99.90;;;;;;5036749;28;20021;-68
2022/04/22 09:23:35;;;;;;;4.40;1.38;;;16.50;99.90;;;;;;5033148;28;20017;-68
2022/04/22 09:26:05;;;;;;;6.75;0.95;;;16.50;99.90;;;;;;5033906;28;20034;-68
2022/04/22 09:28:34;;;;;;;6.43;1.00;;;16.50;99.90;;;;;;5026112;28;20508;-67
2022/04/22 09:31:05;;;;;;;6.00;1.23;;;16.40;99.90;;;;;;5035402;28;20033;-68
2022/04/22 09:33:45;;;;;;;8.75;3.10;;;16.40;99.90;;;;;;5032567;28;20121;-68
2022/04/22 09:44:37;;;;;;;4.63;1.63;;;16.50;99.90;;;;;;5025144;28;20441;-68
2022/04/22 09:47:12;;;;;;;8.05;1.52;;;16.50;99.90;;;;;;5032363;28;20048;-68
2022/04/22 09:49:45;;;;;;;6.95;1.77;;;16.40;99.90;;;;;;5031721;28;20013;-68
2022/04/22 09:52:13;;;;;;;10.32;2.40;;;16.40;99.90;;;;;;5031732;28;20036;-68
2022/04/22 09:54:55;;;;;;;6.40;2.15;;;16.40;99.90;;;;;;5030672;28;20032;-68
2022/04/22 09:57:22;;;;;;;8.13;1.80;;;16.40;99.90;;;;;;5032479;28;20021;-68
2022/04/22 09:59:51;;;;;;;6.00;1.65;;;16.40;99.90;;;;;;5033541;28;20030;-68
2022/04/22 10:02:24;;;;;;;9.35;1.42;;;16.50;99.90;;;;;;5035496;28;20045;-68
2022/04/22 10:04:54;;;;;;;7.18;1.48;;;16.40;99.90;;;;;;5031562;28;20057;-68
2022/04/22 10:07:28;;;;;;;6.10;1.40;;;16.40;99.90;;;;;;5035510;28;20458;-68
2022/04/22 10:09:58;;;;;;;5.93;1.65;;;16.40;99.90;;;;;;5033263;28;20033;-67
2022/04/22 10:12:26;;;;;;;5.53;1.30;;;16.50;99.90;;;;;;5034187;28;20049;-68
2022/04/22 10:14:58;;;;;;;6.10;2.05;;;16.40;99.90;;;;;;5032167;28;20541;-68
2022/04/22 10:17:26;;;;;;;12.75;2.53;;;16.30;99.90;;;;;;5034057;28;20191;-68
2022/04/22 10:19:54;;;;;;;7.93;1.75;;;16.40;99.90;;;;;;5028995;28;20029;-68
2022/04/22 10:22:26;;;;;;;6.90;1.63;;;16.40;99.90;;;;;;5034534;28;20021;-68
2022/04/22 10:24:55;;;;;;;7.82;2.72;;;16.40;99.90;;;;;;5020862;28;20045;-68
2022/04/22 10:27:23;;;;;;;3.80;2.90;;;16.40;99.90;;;;;;5025747;28;20029;-68
2022/04/22 10:29:52;;;;;;;5.68;2.33;;;16.40;99.90;;;;;;5032320;28;20083;-68
2022/04/22 10:32:20;;;;;;;5.75;1.42;;;16.40;99.90;;;;;;5034020;28;20366;-68
2022/04/22 10:34:56;;;;;;;6.20;1.33;;;16.30;99.90;;;;;;5031364;28;20374;-68
2022/04/22 10:37:28;;;;;;;5.18;2.08;;;16.20;99.90;;;;;;5017193;28;20500;-68
2022/04/22 10:39:57;;;;;;;5.57;1.83;;;16.10;99.90;;;;;;5028267;28;20111;-68
2022/04/22 10:42:35;;;;;;;7.18;2.53;;;16.20;99.90;;;;;;5034303;28;20068;-67
2022/04/22 10:47:50;;;;;;;6.60;1.65;;;16.20;99.90;;;;;;5034605;28;20033;-68
2022/04/22 10:50:37;;;;;;;9.65;2.38;;;16.20;99.90;;;;;;5033272;28;20112;-68
2022/04/22 10:53:12;;;;;;;7.57;2.25;;;16.20;99.90;;;;;;5032455;28;20069;-68
2022/04/22 10:55:44;;;;;;;7.22;1.50;;;16.20;99.90;;;;;;5034399;28;20397;-68
2022/04/22 10:58:15;;;;;;;4.03;1.65;;;16.10;99.90;;;;;;5033428;28;20025;-68
2022/04/22 11:00:49;;;;;;;8.65;1.92;;;16.10;99.90;;;;;;5027571;28;20101;-67
2022/04/22 11:03:22;;;;;;;5.78;1.17;;;16.10;99.90;;;;;;5005003;28;20053;-68
2022/04/22 11:06:17;;;;;;;5.53;1.95;;;16.10;99.90;;;;;;4994555;28;20022;-68
2022/04/22 11:09:05;;;;;;;4.55;1.80;;;16.10;99.90;;;;;;4991752;28;20133;-68
2022/04/22 11:11:40;;;;;;;4.45;1.38;;;16.10;99.90;;;;;;4962726;28;20057;-68
2022/04/22 11:14:23;;;;;;;8.70;2.13;;;16.10;99.90;;;;;;5011912;28;20030;-68
2022/04/22 11:16:50;;;;;;;7.40;1.95;;;16.00;99.90;;;;;;5020388;28;20415;-67
2022/04/22 11:19:21;;;;;;;6.55;3.72;;;16.00;99.90;;;;;;5007031;28;20038;-68
2022/04/22 11:21:52;;;;;;;6.93;3.30;;;16.00;99.90;;;;;;5013869;28;20036;-69
2022/04/22 11:24:26;;;;;;;10.70;2.72;;;16.00;99.90;;;;;;5012707;28;20476;-68
2022/04/22 11:27:05;;;;;;;5.32;2.75;;;16.10;99.90;;;;;;4991475;28;20033;-68
2022/04/22 11:29:32;;;;;;;8.45;1.20;;;16.00;99.90;;;;;;4992453;28;20428;-68
2022/04/22 11:32:12;;;;;;;6.03;1.40;;;15.90;99.90;;;;;;5010245;28;20030;-67
2022/04/22 11:34:56;;;;;;;8.00;1.77;;;15.90;99.90;;;;;;5008287;28;20471;-68
2022/04/22 11:37:24;;;;;;;6.80;1.20;;;16.00;99.90;;;;;;5009177;28;20491;-68
2022/04/22 11:39:51;;;;;;;10.88;2.78;;;15.90;99.90;;;;;;5008939;28;20278;-68
2022/04/22 11:42:20;;;;;;;6.75;1.83;;;15.90;99.90;;;;;;4998182;28;20395;-69
2022/04/22 11:45:11;;;;;;;5.93;1.55;;;16.00;99.90;;;;;;5011702;28;20041;-68
2022/04/22 11:47:41;;;;;;;10.07;2.50;;;16.00;99.90;;;;;;5012740;28;20081;-68
2022/04/22 11:50:09;;;;;;;7.70;1.20;;;16.10;99.90;;;;;;4993589;28;20034;-68
2022/04/22 11:52:37;;;;;;;7.47;1.23;;;16.10;99.90;;;;;;5010983;28;20026;-68
2022/04/22 11:55:07;;;;;;;3.88;0.90;;;16.10;99.90;;;;;;5013099;28;20060;-68
2022/04/22 11:57:38;;;;;;;9.10;1.30;;;16.00;99.90;;;;;;5009195;28;20113;-68
2022/04/22 12:05:34;;;;;;;4.63;1.42;;;16.00;99.90;;;;;;5003822;28;20098;-68
2022/04/22 12:08:05;;;;;;;8.45;1.73;;;16.00;99.90;;;;;;5009950;28;20030;-67
2022/04/22 12:10:34;;;;;;;7.88;1.98;;;15.80;99.90;;;;;;5012847;28;20022;-67
2022/04/22 12:13:04;;;;;;;5.40;1.80;;;15.70;99.90;;;;;;5012692;28;20389;-67
2022/04/22 12:15:31;;;;;;;5.32;1.50;;;15.80;99.90;;;;;;5009559;28;20501;-67
2022/04/22 12:17:59;;;;;;;6.78;1.90;;;15.80;99.90;;;;;;5013152;28;20414;-67
2022/04/22 12:20:26;;;;;;;10.02;2.10;;;15.90;99.90;;;;;;5013040;28;20032;-67
2022/04/22 12:22:55;;;;;;;6.57;1.58;;;15.90;99.90;;;;;;5012875;28;20030;-67
2022/04/22 12:25:23;;;;;;;9.10;3.28;;;15.90;99.90;;;;;;5011474;28;20421;-67
2022/04/22 12:28:08;;;;;;;5.38;2.80;;;15.80;99.90;;;;;;5011507;28;20041;-67
2022/04/22 12:30:37;;;;;;;10.48;2.75;;;15.80;99.90;;;;;;5004925;28;20101;-68
2022/04/22 12:33:06;;;;;;;9.55;1.98;;;15.80;99.90;;;;;;5012889;28;20097;-68
2022/04/22 12:35:34;;;;;;;7.55;2.05;;;15.80;99.90;;;;;;5009850;28;20022;-68
2022/04/22 12:38:14;;;;;;;10.02;2.38;;;15.90;99.90;;;;;;5011520;28;20036;-68
2022/04/22 12:40:47;;;;;;;7.13;2.60;;;15.80;99.90;;;;;;5011400;28;20034;-68
2022/04/22 12:43:28;;;;;;;8.32;2.58;;;15.70;99.90;;;;;;5011378;28;20033;-68
2022/04/22 12:52:14;;;;;;;4.78;2.10;;;15.80;99.90;;;;;;5010297;28;20531;-68
2022/04/22 12:54:45;;;;;;;5.57;2.47;;;15.70;99.90;;;;;;5001686;28;20018;-68
2022/04/22 12:57:32;;;;;;;7.05;2.95;;;15.70;99.90;;;;;;5010586;28;20463;-68
2022/04/22 12:59:59;;;;;;;6.00;2.20;;;15.70;99.90;;;;;;5007034;28;20359;-68
2022/04/22 13:02:34;;;;;;;8.82;2.60;;;15.70;99.90;;;;;;5012410;28;20494;-67
2022/04/22 13:05:06;;;;;;;7.78;2.55;;;15.70;99.90;;;;;;5009664;28;20022;-68
2022/04/22 13:07:49;;;;;;;10.13;2.42;;;15.70;99.90;;;;;;5011438;28;20494;-68
2022/04/22 13:10:22;;;;;;;7.43;1.92;;;15.70;99.90;;;;;;5006708;28;20076;-68
2022/04/22 13:12:50;;;;;;;5.47;2.00;;;15.70;99.90;;;;;;5009038;28;20537;-68
2022/04/22 13:15:21;;;;;;;2.88;1.45;;;15.80;99.90;;;;;;5009348;28;20013;-68
2022/04/22 13:17:49;;;;;;;5.90;1.35;;;15.80;99.90;;;;;;5011458;28;20498;-67
2022/04/22 13:20:20;;;;;;;4.30;1.20;;;15.60;99.90;;;;;;5005549;28;20018;-68
2022/04/22 13:22:49;;;;;;;7.32;1.23;;;15.60;99.90;;;;;;5007283;28;20033;-68
2022/04/22 13:25:17;;;;;;;2.33;1.10;;;15.60;99.90;;;;;;5006328;28;20511;-68
2022/04/22 13:27:46;;;;;;;4.93;1.40;;;15.50;99.90;;;;;;5006725;28;20026;-68
2022/04/22 13:30:16;;;;;;;5.30;1.42;;;15.50;99.90;;;;;;5003527;28;20034;-68
2022/04/22 13:32:44;;;;;;;3.83;1.50;;;15.60;99.90;;;;;;5004046;28;20030;-68
2022/04/22 13:35:12;;;;;;;5.68;1.27;;;15.60;99.90;;;;;;5009487;28;20048;-68
2022/04/22 13:37:40;;;;;;;3.35;0.80;;;15.60;99.90;;;;;;5005440;28;20025;-68
2022/04/22 13:40:08;;;;;;;2.25;0.80;;;15.60;99.90;;;;;;5010259;28;20124;-68
2022/04/22 13:42:35;;;;;;;6.63;1.40;;;15.60;99.90;;;;;;5005716;28;20022;-68
2022/04/22 13:53:18;;;;;;;6.43;1.70;;;15.60;99.90;;;;;;5009918;28;20044;-68
2022/04/22 13:55:46;;;;;;;4.82;1.20;;;15.60;99.90;;;;;;5012278;28;20105;-67
2022/04/22 13:58:14;;;;;;;5.57;1.55;;;15.60;99.90;;;;;;5014785;28;20033;-68
2022/04/22 14:00:42;;;;;;;4.72;1.38;;;15.60;99.90;;;;;;5014249;28;20501;-68
2022/04/22 14:03:09;;;;;;;2.40;1.17;;;15.60;99.90;;;;;;5009923;28;20069;-68
2022/04/22 14:05:36;;;;;;;4.28;1.83;;;15.50;99.90;;;;;;5013520;28;20323;-68
2022/04/22 14:08:04;;;;;;;3.33;1.80;;;15.50;99.90;;;;;;5011588;28;20486;-68
2022/04/22 14:10:32;;;;;;;5.32;1.90;;;15.60;99.90;;;;;;5011503;28;20036;-68